Terminal Aerodrome Forecast
Issued by NWS

Home | Current Version | Previous Version | Text Only | Print | Product List | Glossary On
Versions: 1 2 3 4 5 6 7 8 9 10 11 12 13 14 15 16 17 18 19 20 21
891
FTUS45 KTFX 110123 AAA
TAFHVR
TAF AMD
KHVR 110123Z 1101/1124 VRB05KT P6SM -SHSN SCT025
      TEMPO 1101/1103 3SM -SN BR
     FM110300 VRB05KT P6SM SCT030
     FM111300 VRB05KT P6SM VCSH SCT015 OVC025
     FM111900 35010KT P6SM -SHSN BKN015=

USA.gov is the U.S. government's official web portal to all federal, state and local government web resources and services.